createdAt,value
2022-09-06T00:05:22.143Z,101621.25
2022-09-06T00:15:43.678Z,101608.72
2022-09-06T00:26:05.530Z,101595.59
2022-09-06T00:36:27.320Z,101580.53
2022-09-06T00:46:51.275Z,101579.44
2022-09-06T00:57:15.621Z,101585.41
2022-09-06T01:07:59.878Z,101586.25
2022-09-06T01:18:58.786Z,101585.81
2022-09-06T01:29:32.871Z,101582.75
2022-09-06T01:39:54.407Z,101574.91
2022-09-06T01:50:43.456Z,101560.47
2022-09-06T02:01:22.448Z,101567.09
2022-09-06T02:12:05.938Z,101564.03
2022-09-06T02:22:31.445Z,101548.50
2022-09-06T02:33:02.767Z,101545.00
2022-09-06T02:43:24.361Z,101540.06
2022-09-06T02:53:46.454Z,101544.19
2022-09-06T03:04:08.676Z,101528.88
2022-09-06T03:14:30.156Z,101517.22
2022-09-06T03:24:51.866Z,101499.53
2022-09-06T03:35:13.562Z,101500.41
2022-09-06T03:45:35.157Z,101499.41
2022-09-06T03:55:58.153Z,101495.13
2022-09-06T04:06:19.660Z,101503.56
2022-09-06T04:16:41.800Z,101494.00
2022-09-06T04:27:04.135Z,101479.44
2022-09-06T04:37:25.709Z,101486.81
2022-09-06T04:47:47.273Z,101478.25
2022-09-06T04:58:08.800Z,101493.28
2022-09-06T05:08:30.267Z,101540.38
2022-09-06T05:18:51.980Z,101524.50
2022-09-06T05:29:13.593Z,101532.16
2022-09-06T05:39:35.162Z,101537.31
2022-09-06T05:49:56.692Z,101553.34
2022-09-06T06:00:18.277Z,101534.97
2022-09-06T06:10:40.644Z,101511.25
2022-09-06T06:21:14.666Z,101569.22
2022-09-06T06:31:38.018Z,101487.56
2022-09-06T06:41:59.577Z,101514.16
2022-09-06T06:52:22.029Z,101517.53
2022-09-06T07:02:43.966Z,101534.50
2022-09-06T07:13:05.536Z,101571.72
2022-09-06T07:34:08.547Z,101557.44
2022-09-06T07:44:30.089Z,101553.38
2022-09-06T07:54:51.563Z,101555.88
2022-09-06T08:16:03.325Z,101537.22
2022-09-06T08:26:26.515Z,101539.66
2022-09-06T08:36:47.998Z,101526.78
2022-09-06T08:47:10.908Z,101533.66
2022-09-06T08:57:50.887Z,101546.59
2022-09-06T09:08:37.309Z,101537.72
2022-09-06T09:19:01.733Z,101533.34
2022-09-06T09:29:28.762Z,101525.28
2022-09-06T09:39:55.464Z,101532.69
2022-09-06T09:50:26.460Z,101539.72
2022-09-06T10:00:48.413Z,101533.03
2022-09-06T10:11:14.488Z,101532.25
2022-09-06T10:21:36.056Z,101538.06
2022-09-06T10:32:36.066Z,101526.84
2022-09-06T10:43:00.455Z,101533.72
2022-09-06T10:53:47.981Z,101517.50
2022-09-06T11:04:20.150Z,101523.44
2022-09-06T11:14:41.819Z,101506.06
2022-09-06T11:25:42.165Z,101504.31
2022-09-06T11:36:22.919Z,101516.75
2022-09-06T11:46:44.468Z,101513.69
2022-09-06T11:57:21.663Z,101491.97
2022-09-06T12:08:09.103Z,101489.88
2022-09-06T12:18:43.039Z,101489.41
2022-09-06T12:29:10.751Z,101478.50
2022-09-06T12:39:32.622Z,101463.75
2022-09-06T12:50:13.102Z,101461.84
2022-09-06T13:00:40.469Z,101455.34
2022-09-06T13:11:08.035Z,101436.22
2022-09-06T13:21:32.900Z,101441.28
2022-09-06T13:31:56.954Z,101436.94
2022-09-06T13:42:29.548Z,101420.88
2022-09-06T13:52:51.044Z,101426.09
2022-09-06T14:03:22.434Z,101416.28
2022-09-06T14:13:44.237Z,101408.69
2022-09-06T14:24:06.314Z,101397.97
2022-09-06T14:34:27.999Z,101397.53
2022-09-06T14:44:49.526Z,101391.09
2022-09-06T14:55:11.277Z,101364.69
2022-09-06T15:05:32.926Z,101359.88
2022-09-06T15:15:55.354Z,101365.50
2022-09-06T15:26:16.977Z,101361.94
2022-09-06T15:36:38.539Z,101354.50
2022-09-06T15:47:00.110Z,101356.94
2022-09-06T15:57:21.775Z,101342.66
2022-09-06T16:07:44.677Z,101321.06
2022-09-06T16:18:06.185Z,101309.09
2022-09-06T16:28:29.716Z,101292.38
2022-09-06T16:38:51.461Z,101293.69
2022-09-06T16:49:13.858Z,101308.09
2022-09-06T16:59:35.463Z,101311.72
2022-09-06T17:09:57.003Z,101310.53
2022-09-06T17:20:20.625Z,101307.88
2022-09-06T17:30:42.165Z,101316.38
2022-09-06T17:41:04.290Z,101316.78
2022-09-06T17:51:26.137Z,101317.13
2022-09-06T18:01:47.779Z,101315.59
2022-09-06T18:12:09.402Z,101335.81
2022-09-06T18:22:31.094Z,101347.72
2022-09-06T18:32:52.855Z,101342.34
2022-09-06T18:43:14.379Z,101342.97
2022-09-06T18:53:36.236Z,101338.97
2022-09-06T19:03:59.133Z,101324.34
2022-09-06T19:14:20.985Z,101336.25
2022-09-06T19:24:44.358Z,101331.63
2022-09-06T19:35:06.188Z,101333.88
2022-09-06T19:45:27.784Z,101319.00
2022-09-06T19:55:49.315Z,101313.44
2022-09-06T20:06:11.443Z,101304.53
2022-09-06T20:16:34.044Z,101296.06
2022-09-06T20:26:57.640Z,101291.34
2022-09-06T20:37:19.696Z,101273.13
2022-09-06T20:47:41.797Z,101271.03
2022-09-06T20:58:03.338Z,101248.63
2022-09-06T21:08:26.124Z,101228.91
2022-09-06T21:18:52.277Z,101224.88
2022-09-06T21:29:13.950Z,101216.78
2022-09-06T21:39:35.585Z,101220.91
2022-09-06T21:49:57.288Z,101222.59
2022-09-06T22:00:18.999Z,101223.41
2022-09-06T22:10:40.562Z,101199.06
2022-09-06T22:21:11.693Z,101215.31
2022-09-06T22:31:34.783Z,101211.38
2022-09-06T22:41:56.379Z,101204.28
2022-09-06T22:52:18.120Z,101197.59
2022-09-06T23:02:39.658Z,101178.84
2022-09-06T23:13:01.197Z,101175.66
2022-09-06T23:23:22.730Z,101149.56
2022-09-06T23:33:44.357Z,101151.31
2022-09-06T23:44:05.948Z,101140.53
2022-09-06T23:54:27.447Z,101132.28
